sensor_id;sensor_type;location;lat;lon;timestamp;pressure;altitude;pressure_sealevel;temperature;humidity
12666;BME280;58531;59.050;17.416;2022-08-01T00:00:09;100730.50;;;14.40;97.36
12666;BME280;58531;59.050;17.416;2022-08-01T00:02:36;100726.94;;;14.34;97.13
12666;BME280;58531;59.050;17.416;2022-08-01T00:05:04;100727.72;;;14.34;98.19
12666;BME280;58531;59.050;17.416;2022-08-01T00:07:33;100723.97;;;14.32;97.97
12666;BME280;58531;59.050;17.416;2022-08-01T00:10:00;100724.22;;;14.19;97.26
12666;BME280;58531;59.050;17.416;2022-08-01T00:12:26;100716.16;;;14.11;97.64
12666;BME280;58531;59.050;17.416;2022-08-01T00:14:53;100723.06;;;14.03;97.98
12666;BME280;58531;59.050;17.416;2022-08-01T00:17:19;100722.94;;;13.97;98.00
12666;BME280;58531;59.050;17.416;2022-08-01T00:19:46;100718.06;;;13.96;98.73
12666;BME280;58531;59.050;17.416;2022-08-01T00:22:13;100708.78;;;13.97;99.15
12666;BME280;58531;59.050;17.416;2022-08-01T00:24:41;100704.75;;;14.01;99.28
12666;BME280;58531;59.050;17.416;2022-08-01T00:27:07;100713.41;;;13.96;98.63
12666;BME280;58531;59.050;17.416;2022-08-01T00:29:34;100706.25;;;13.93;98.62
12666;BME280;58531;59.050;17.416;2022-08-01T00:32:00;100708.25;;;13.84;98.39
12666;BME280;58531;59.050;17.416;2022-08-01T00:34:27;100706.78;;;13.74;98.12
12666;BME280;58531;59.050;17.416;2022-08-01T00:36:54;100704.13;;;13.65;98.32
12666;BME280;58531;59.050;17.416;2022-08-01T00:39:20;100697.28;;;13.64;99.46
12666;BME280;58531;59.050;17.416;2022-08-01T00:41:48;100701.91;;;13.63;99.94
12666;BME280;58531;59.050;17.416;2022-08-01T00:44:15;100693.41;;;13.65;99.97
12666;BME280;58531;59.050;17.416;2022-08-01T00:46:42;100703.13;;;13.62;99.57
12666;BME280;58531;59.050;17.416;2022-08-01T00:49:08;100693.41;;;13.65;99.81
12666;BME280;58531;59.050;17.416;2022-08-01T00:51:35;100688.94;;;13.62;99.87
12666;BME280;58531;59.050;17.416;2022-08-01T00:54:02;100686.72;;;13.60;100.00
12666;BME280;58531;59.050;17.416;2022-08-01T00:56:29;100693.13;;;13.63;99.77
12666;BME280;58531;59.050;17.416;2022-08-01T00:58:58;100688.66;;;13.60;99.61
12666;BME280;58531;59.050;17.416;2022-08-01T01:01:24;100685.56;;;13.52;99.62
12666;BME280;58531;59.050;17.416;2022-08-01T01:03:52;100681.56;;;13.48;99.57
12666;BME280;58531;59.050;17.416;2022-08-01T01:06:40;100684.09;;;13.42;99.36
12666;BME280;58531;59.050;17.416;2022-08-01T01:09:24;100680.53;;;13.36;99.32
12666;BME280;58531;59.050;17.416;2022-08-01T01:12:02;100682.47;;;13.36;99.78
12666;BME280;58531;59.050;17.416;2022-08-01T01:14:37;100676.34;;;13.35;100.00
12666;BME280;58531;59.050;17.416;2022-08-01T01:17:11;100679.19;;;13.41;100.00
12666;BME280;58531;59.050;17.416;2022-08-01T01:19:45;100676.34;;;13.44;100.00
12666;BME280;58531;59.050;17.416;2022-08-01T01:22:36;100674.41;;;13.45;100.00
12666;BME280;58531;59.050;17.416;2022-08-01T01:25:19;100672.31;;;13.49;100.00
12666;BME280;58531;59.050;17.416;2022-08-01T01:27:57;100667.25;;;13.51;100.00
12666;BME280;58531;59.050;17.416;2022-08-01T01:30:31;100675.53;;;13.62;100.00
12666;BME280;58531;59.050;17.416;2022-08-01T01:33:00;100667.16;;;13.69;100.00
12666;BME280;58531;59.050;17.416;2022-08-01T01:35:32;100670.75;;;13.66;100.00
12666;BME280;58531;59.050;17.416;2022-08-01T01:38:04;100667.19;;;13.60;100.00
12666;BME280;58531;59.050;17.416;2022-08-01T01:40:31;100669.28;;;13.56;100.00
12666;BME280;58531;59.050;17.416;2022-08-01T01:42:59;100668.97;;;13.63;100.00
12666;BME280;58531;59.050;17.416;2022-08-01T01:45:27;100666.56;;;13.65;100.00
12666;BME280;58531;59.050;17.416;2022-08-01T01:47:56;100657.31;;;13.66;100.00
12666;BME280;58531;59.050;17.416;2022-08-01T01:50:27;100657.31;;;13.66;100.00
12666;BME280;58531;59.050;17.416;2022-08-01T01:52:55;100659.72;;;13.64;100.00
12666;BME280;58531;59.050;17.416;2022-08-01T01:55:23;100661.53;;;13.58;99.94
12666;BME280;58531;59.050;17.416;2022-08-01T01:57:52;100656.63;;;13.56;100.00
12666;BME280;58531;59.050;17.416;2022-08-01T02:00:20;100651.69;;;13.55;100.00
12666;BME280;58531;59.050;17.416;2022-08-01T02:02:48;100652.59;;;13.52;100.00
12666;BME280;58531;59.050;17.416;2022-08-01T02:05:18;100649.66;;;13.50;100.00
12666;BME280;58531;59.050;17.416;2022-08-01T02:07:45;100647.88;;;13.47;100.00
12666;BME280;58531;59.050;17.416;2022-08-01T02:10:15;100644.72;;;13.48;100.00
12666;BME280;58531;59.050;17.416;2022-08-01T02:12:43;100643.53;;;13.49;100.00
12666;BME280;58531;59.050;17.416;2022-08-01T02:15:12;100641.88;;;13.52;100.00
12666;BME280;58531;59.050;17.416;2022-08-01T02:17:43;100639.47;;;13.54;100.00
12666;BME280;58531;59.050;17.416;2022-08-01T02:20:11;100641.72;;;13.55;100.00
12666;BME280;58531;59.050;17.416;2022-08-01T02:22:44;100642.88;;;13.63;100.00
12666;BME280;58531;59.050;17.416;2022-08-01T02:25:19;100637.34;;;13.67;99.59
12666;BME280;58531;59.050;17.416;2022-08-01T02:27:59;100637.19;;;13.70;99.32
12666;BME280;58531;59.050;17.416;2022-08-01T02:30:32;100640.50;;;13.65;99.03
12666;BME280;58531;59.050;17.416;2022-08-01T02:33:03;100642.75;;;13.58;99.02
12666;BME280;58531;59.050;17.416;2022-08-01T02:35:33;100635.94;;;13.48;98.80
12666;BME280;58531;59.050;17.416;2022-08-01T02:38:03;100641.06;;;13.37;98.91
12666;BME280;58531;59.050;17.416;2022-08-01T02:40:33;100644.66;;;13.25;99.02
12666;BME280;58531;59.050;17.416;2022-08-01T02:43:02;100641.25;;;13.15;99.16
12666;BME280;58531;59.050;17.416;2022-08-01T02:45:31;100635.75;;;13.10;99.44
12666;BME280;58531;59.050;17.416;2022-08-01T02:48:03;100634.56;;;13.11;100.00
12666;BME280;58531;59.050;17.416;2022-08-01T02:50:33;100635.31;;;13.11;100.00
12666;BME280;58531;59.050;17.416;2022-08-01T02:53:02;100639.63;;;13.09;99.77
12666;BME280;58531;59.050;17.416;2022-08-01T02:55:31;100634.25;;;13.18;100.00
12666;BME280;58531;59.050;17.416;2022-08-01T02:58:00;100633.19;;;13.24;100.00
12666;BME280;58531;59.050;17.416;2022-08-01T03:00:29;100630.06;;;13.26;99.61
12666;BME280;58531;59.050;17.416;2022-08-01T03:02:57;100627.38;;;13.26;99.57
12666;BME280;58531;59.050;17.416;2022-08-01T03:05:26;100629.75;;;13.24;99.31
12666;BME280;58531;59.050;17.416;2022-08-01T03:07:55;100626.44;;;13.38;99.20
12666;BME280;58531;59.050;17.416;2022-08-01T03:10:24;100622.97;;;13.46;98.62
12666;BME280;58531;59.050;17.416;2022-08-01T03:12:53;100616.25;;;13.51;97.94
12666;BME280;58531;59.050;17.416;2022-08-01T03:15:22;100616.19;;;13.60;97.45
12666;BME280;58531;59.050;17.416;2022-08-01T03:17:50;100619.75;;;13.66;97.55
12666;BME280;58531;59.050;17.416;2022-08-01T03:20:19;100626.28;;;13.74;97.49
12666;BME280;58531;59.050;17.416;2022-08-01T03:22:49;100624.75;;;13.82;97.40
12666;BME280;58531;59.050;17.416;2022-08-01T03:25:18;100630.22;;;13.87;97.27
12666;BME280;58531;59.050;17.416;2022-08-01T03:27:50;100633.03;;;13.93;96.93
12666;BME280;58531;59.050;17.416;2022-08-01T03:30:18;100626.38;;;14.03;96.97
12666;BME280;58531;59.050;17.416;2022-08-01T03:32:44;100631.41;;;14.10;96.25
12666;BME280;58531;59.050;17.416;2022-08-01T03:35:11;100633.16;;;14.21;96.37
12666;BME280;58531;59.050;17.416;2022-08-01T03:37:41;100626.19;;;14.38;95.76
12666;BME280;58531;59.050;17.416;2022-08-01T03:40:13;100632.88;;;14.57;95.18
12666;BME280;58531;59.050;17.416;2022-08-01T03:42:44;100630.13;;;14.81;94.27
12666;BME280;58531;59.050;17.416;2022-08-01T03:45:18;100630.72;;;14.99;91.87
12666;BME280;58531;59.050;17.416;2022-08-01T03:47:46;100629.22;;;15.27;92.28
12666;BME280;58531;59.050;17.416;2022-08-01T03:50:16;100618.41;;;15.56;92.64
12666;BME280;58531;59.050;17.416;2022-08-01T03:52:45;100626.25;;;15.74;89.39
12666;BME280;58531;59.050;17.416;2022-08-01T03:55:15;100629.31;;;16.01;89.21
12666;BME280;58531;59.050;17.416;2022-08-01T03:57:43;100623.06;;;16.30;89.60
12666;BME280;58531;59.050;17.416;2022-08-01T04:00:12;100628.63;;;16.66;86.03
12666;BME280;58531;59.050;17.416;2022-08-01T04:02:44;100629.47;;;17.70;82.24
12666;BME280;58531;59.050;17.416;2022-08-01T04:05:11;100634.38;;;18.94;76.72
12666;BME280;58531;59.050;17.416;2022-08-01T04:07:37;100635.38;;;19.34;73.72
12666;BME280;58531;59.050;17.416;2022-08-01T04:10:06;100624.19;;;19.87;71.20
12666;BME280;58531;59.050;17.416;2022-08-01T04:12:34;100628.16;;;20.89;65.49
12666;BME280;58531;59.050;17.416;2022-08-01T04:15:01;100633.59;;;21.95;62.69
12666;BME280;58531;59.050;17.416;2022-08-01T04:17:29;100627.78;;;22.96;59.09
12666;BME280;58531;59.050;17.416;2022-08-01T04:19:56;100635.53;;;24.53;52.78
12666;BME280;58531;59.050;17.416;2022-08-01T04:22:23;100631.53;;;24.41;52.96
12666;BME280;58531;59.050;17.416;2022-08-01T04:24:53;100627.31;;;25.07;51.03
12666;BME280;58531;59.050;17.416;2022-08-01T04:27:27;100628.06;;;23.82;53.76
12666;BME280;58531;59.050;17.416;2022-08-01T04:29:56;100618.63;;;21.65;60.56
12666;BME280;58531;59.050;17.416;2022-08-01T04:32:25;100613.50;;;21.32;61.71
12666;BME280;58531;59.050;17.416;2022-08-01T04:34:58;100615.09;;;20.41;65.89
12666;BME280;58531;59.050;17.416;2022-08-01T04:37:28;100615.84;;;20.42;65.74
12666;BME280;58531;59.050;17.416;2022-08-01T04:39:56;100617.50;;;20.56;65.77
12666;BME280;58531;59.050;17.416;2022-08-01T04:42:23;100619.09;;;20.35;66.21
12666;BME280;58531;59.050;17.416;2022-08-01T04:44:50;100615.53;;;20.05;67.31
12666;BME280;58531;59.050;17.416;2022-08-01T04:47:17;100620.53;;;19.68;69.31
12666;BME280;58531;59.050;17.416;2022-08-01T04:49:45;100624.00;;;19.58;69.35
12666;BME280;58531;59.050;17.416;2022-08-01T04:52:13;100618.38;;;19.39;70.97
12666;BME280;58531;59.050;17.416;2022-08-01T04:54:43;100613.22;;;19.25;70.27
12666;BME280;58531;59.050;17.416;2022-08-01T04:57:11;100618.13;;;19.04;71.30
12666;BME280;58531;59.050;17.416;2022-08-01T04:59:42;100615.41;;;18.94;71.23
12666;BME280;58531;59.050;17.416;2022-08-01T05:02:10;100620.09;;;18.99;71.35
12666;BME280;58531;59.050;17.416;2022-08-01T05:04:37;100612.50;;;19.19;70.83
12666;BME280;58531;59.050;17.416;2022-08-01T05:07:05;100615.34;;;19.70;68.30
12666;BME280;58531;59.050;17.416;2022-08-01T05:09:33;100614.22;;;20.17;66.07
12666;BME280;58531;59.050;17.416;2022-08-01T05:12:02;100609.66;;;20.47;65.18
12666;BME280;58531;59.050;17.416;2022-08-01T05:14:29;100609.94;;;20.84;64.40
12666;BME280;58531;59.050;17.416;2022-08-01T05:16:57;100615.13;;;20.82;63.45
12666;BME280;58531;59.050;17.416;2022-08-01T05:19:24;100597.88;;;20.74;64.04
12666;BME280;58531;59.050;17.416;2022-08-01T05:21:51;100614.97;;;20.63;65.32
12666;BME280;58531;59.050;17.416;2022-08-01T05:24:18;100599.44;;;20.64;64.68
12666;BME280;58531;59.050;17.416;2022-08-01T05:26:46;100604.22;;;21.17;62.88
12666;BME280;58531;59.050;17.416;2022-08-01T05:29:14;100605.00;;;21.41;60.75
12666;BME280;58531;59.050;17.416;2022-08-01T05:31:40;100603.34;;;22.04;59.03
12666;BME280;58531;59.050;17.416;2022-08-01T05:34:07;100602.28;;;22.81;55.89
12666;BME280;58531;59.050;17.416;2022-08-01T05:36:34;100608.75;;;23.80;53.08
12666;BME280;58531;59.050;17.416;2022-08-01T05:39:02;100602.63;;;23.35;54.04
12666;BME280;58531;59.050;17.416;2022-08-01T05:41:29;100599.88;;;22.22;55.68
12666;BME280;58531;59.050;17.416;2022-08-01T05:43:57;100590.44;;;20.80;59.04
12666;BME280;58531;59.050;17.416;2022-08-01T05:46:24;100601.13;;;20.67;59.96
12666;BME280;58531;59.050;17.416;2022-08-01T05:48:51;100589.78;;;20.28;61.39
12666;BME280;58531;59.050;17.416;2022-08-01T05:51:17;100590.41;;;19.99;62.22
12666;BME280;58531;59.050;17.416;2022-08-01T05:53:44;100587.72;;;19.88;62.31
12666;BME280;58531;59.050;17.416;2022-08-01T05:56:11;100591.72;;;19.71;62.66
12666;BME280;58531;59.050;17.416;2022-08-01T05:58:37;100587.59;;;19.53;63.02
12666;BME280;58531;59.050;17.416;2022-08-01T06:01:05;100603.13;;;19.20;65.01
12666;BME280;58531;59.050;17.416;2022-08-01T06:03:32;100595.25;;;19.16;64.18
12666;BME280;58531;59.050;17.416;2022-08-01T06:05:59;100596.22;;;19.13;63.86
12666;BME280;58531;59.050;17.416;2022-08-01T06:08:25;100589.06;;;18.94;65.04
12666;BME280;58531;59.050;17.416;2022-08-01T06:10:52;100597.94;;;19.05;64.37
12666;BME280;58531;59.050;17.416;2022-08-01T06:13:19;100597.72;;;19.03;65.51
12666;BME280;58531;59.050;17.416;2022-08-01T06:15:46;100595.47;;;19.13;64.75
12666;BME280;58531;59.050;17.416;2022-08-01T06:18:15;100600.41;;;19.14;65.61
12666;BME280;58531;59.050;17.416;2022-08-01T06:20:42;100595.50;;;19.29;65.34
12666;BME280;58531;59.050;17.416;2022-08-01T06:23:09;100609.03;;;19.40;65.03
12666;BME280;58531;59.050;17.416;2022-08-01T06:25:36;100599.19;;;19.32;65.65
12666;BME280;58531;59.050;17.416;2022-08-01T06:28:03;100608.03;;;19.43;64.82
12666;BME280;58531;59.050;17.416;2022-08-01T06:30:30;100605.81;;;19.36;64.99
12666;BME280;58531;59.050;17.416;2022-08-01T06:32:56;100597.38;;;19.73;63.84
12666;BME280;58531;59.050;17.416;2022-08-01T06:35:25;100596.09;;;19.90;62.57
12666;BME280;58531;59.050;17.416;2022-08-01T06:37:52;100592.66;;;19.84;63.48
12666;BME280;58531;59.050;17.416;2022-08-01T06:40:18;100587.44;;;19.97;62.74
12666;BME280;58531;59.050;17.416;2022-08-01T06:42:45;100591.06;;;20.22;61.69
12666;BME280;58531;59.050;17.416;2022-08-01T06:45:12;100593.72;;;20.27;62.78
12666;BME280;58531;59.050;17.416;2022-08-01T06:47:40;100600.56;;;20.39;62.27
12666;BME280;58531;59.050;17.416;2022-08-01T06:50:08;100600.13;;;20.70;60.47
12666;BME280;58531;59.050;17.416;2022-08-01T06:52:37;100603.97;;;21.44;59.04
12666;BME280;58531;59.050;17.416;2022-08-01T06:55:04;100598.16;;;21.58;57.87
12666;BME280;58531;59.050;17.416;2022-08-01T06:57:31;100605.88;;;21.97;56.98
12666;BME280;58531;59.050;17.416;2022-08-01T07:00:01;100604.28;;;22.25;56.11
12666;BME280;58531;59.050;17.416;2022-08-01T07:02:28;100596.31;;;21.90;55.80
12666;BME280;58531;59.050;17.416;2022-08-01T07:04:55;100594.72;;;21.82;55.98
12666;BME280;58531;59.050;17.416;2022-08-01T07:07:25;100592.59;;;22.12;55.55
12666;BME280;58531;59.050;17.416;2022-08-01T07:09:53;100590.19;;;22.45;55.19
12666;BME280;58531;59.050;17.416;2022-08-01T07:12:19;100594.53;;;22.35;55.66
12666;BME280;58531;59.050;17.416;2022-08-01T07:14:46;100595.13;;;22.78;53.68
12666;BME280;58531;59.050;17.416;2022-08-01T07:17:13;100602.69;;;22.54;54.13
12666;BME280;58531;59.050;17.416;2022-08-01T07:19:39;100597.84;;;23.54;51.43
12666;BME280;58531;59.050;17.416;2022-08-01T07:22:06;100599.91;;;24.12;49.16
12666;BME280;58531;59.050;17.416;2022-08-01T07:24:32;100601.81;;;24.04;49.11
12666;BME280;58531;59.050;17.416;2022-08-01T07:27:01;100597.38;;;23.24;50.14
12666;BME280;58531;59.050;17.416;2022-08-01T07:29:27;100601.00;;;23.97;49.64
12666;BME280;58531;59.050;17.416;2022-08-01T07:31:55;100596.69;;;25.09;45.18
12666;BME280;58531;59.050;17.416;2022-08-01T07:34:22;100598.44;;;26.10;42.84
12666;BME280;58531;59.050;17.416;2022-08-01T07:36:49;100598.97;;;27.64;38.68
12666;BME280;58531;59.050;17.416;2022-08-01T07:39:16;100602.19;;;27.92;39.71
12666;BME280;58531;59.050;17.416;2022-08-01T07:41:43;100601.19;;;26.60;38.33
12666;BME280;58531;59.050;17.416;2022-08-01T07:44:11;100597.53;;;26.08;40.52
12666;BME280;58531;59.050;17.416;2022-08-01T07:46:38;100595.09;;;25.89;41.84
12666;BME280;58531;59.050;17.416;2022-08-01T07:49:04;100601.91;;;25.68;42.34
12666;BME280;58531;59.050;17.416;2022-08-01T07:51:31;100588.63;;;25.51;41.52
12666;BME280;58531;59.050;17.416;2022-08-01T07:53:57;100588.19;;;25.96;40.11
12666;BME280;58531;59.050;17.416;2022-08-01T07:56:24;100589.94;;;26.29;39.65
12666;BME280;58531;59.050;17.416;2022-08-01T07:58:51;100591.34;;;26.80;38.02
12666;BME280;58531;59.050;17.416;2022-08-01T08:01:19;100589.16;;;26.93;37.61
12666;BME280;58531;59.050;17.416;2022-08-01T08:03:46;100580.38;;;27.02;37.48
12666;BME280;58531;59.050;17.416;2022-08-01T08:06:12;100585.00;;;27.84;35.10
12666;BME280;58531;59.050;17.416;2022-08-01T08:08:39;100590.91;;;27.66;32.90
12666;BME280;58531;59.050;17.416;2022-08-01T08:11:06;100584.34;;;27.61;34.67
12666;BME280;58531;59.050;17.416;2022-08-01T08:13:32;100581.84;;;27.41;33.28
12666;BME280;58531;59.050;17.416;2022-08-01T08:15:59;100585.13;;;26.64;33.58
12666;BME280;58531;59.050;17.416;2022-08-01T08:18:27;100577.72;;;26.37;36.01
12666;BME280;58531;59.050;17.416;2022-08-01T08:20:54;100575.47;;;27.23;35.09
12666;BME280;58531;59.050;17.416;2022-08-01T08:23:20;100578.56;;;27.27;33.91
12666;BME280;58531;59.050;17.416;2022-08-01T08:26:04;100581.50;;;27.14;33.33
12666;BME280;58531;59.050;17.416;2022-08-01T08:28:31;100575.81;;;27.27;35.06
12666;BME280;58531;59.050;17.416;2022-08-01T08:30:58;100570.88;;;27.03;34.82
12666;BME280;58531;59.050;17.416;2022-08-01T08:33:24;100566.56;;;26.28;35.21
12666;BME280;58531;59.050;17.416;2022-08-01T08:35:52;100561.56;;;25.96;35.84
12666;BME280;58531;59.050;17.416;2022-08-01T08:38:20;100562.53;;;26.29;36.79
12666;BME280;58531;59.050;17.416;2022-08-01T08:40:46;100567.28;;;26.21;34.50
12666;BME280;58531;59.050;17.416;2022-08-01T08:43:14;100560.81;;;25.96;35.69
12666;BME280;58531;59.050;17.416;2022-08-01T08:45:42;100563.47;;;26.31;35.25
12666;BME280;58531;59.050;17.416;2022-08-01T08:48:10;100559.22;;;26.08;35.35
12666;BME280;58531;59.050;17.416;2022-08-01T08:50:37;100558.13;;;25.75;37.41
12666;BME280;58531;59.050;17.416;2022-08-01T08:53:05;100564.09;;;25.31;34.97
12666;BME280;58531;59.050;17.416;2022-08-01T08:55:35;100562.16;;;25.74;35.51
12666;BME280;58531;59.050;17.416;2022-08-01T08:58:03;100563.19;;;25.64;35.54
12666;BME280;58531;59.050;17.416;2022-08-01T09:00:31;100561.53;;;25.33;35.40
12666;BME280;58531;59.050;17.416;2022-08-01T09:02:58;100558.03;;;25.05;36.97
12666;BME280;58531;59.050;17.416;2022-08-01T09:05:24;100555.31;;;24.84;37.21
12666;BME280;58531;59.050;17.416;2022-08-01T09:07:52;100548.44;;;25.11;35.68
12666;BME280;58531;59.050;17.416;2022-08-01T09:10:20;100556.41;;;25.57;35.73
12666;BME280;58531;59.050;17.416;2022-08-01T09:13:07;100549.28;;;25.90;35.54
12666;BME280;58531;59.050;17.416;2022-08-01T09:15:43;100557.34;;;26.60;35.98
12666;BME280;58531;59.050;17.416;2022-08-01T09:18:26;100558.09;;;26.76;35.79
12666;BME280;58531;59.050;17.416;2022-08-01T09:21:08;100555.13;;;26.59;32.80
12666;BME280;58531;59.050;17.416;2022-08-01T09:23:37;100554.53;;;26.38;34.41
12666;BME280;58531;59.050;17.416;2022-08-01T09:26:06;100553.00;;;26.07;34.69
12666;BME280;58531;59.050;17.416;2022-08-01T09:28:34;100555.72;;;26.00;34.09
12666;BME280;58531;59.050;17.416;2022-08-01T09:31:06;100560.50;;;26.14;34.44
12666;BME280;58531;59.050;17.416;2022-08-01T09:33:50;100550.16;;;26.42;33.90
12666;BME280;58531;59.050;17.416;2022-08-01T09:36:20;100555.69;;;26.57;34.96
12666;BME280;58531;59.050;17.416;2022-08-01T09:38:47;100543.03;;;26.40;33.57
12666;BME280;58531;59.050;17.416;2022-08-01T09:41:15;100542.66;;;26.21;34.82
12666;BME280;58531;59.050;17.416;2022-08-01T09:43:48;100551.25;;;26.25;34.05
12666;BME280;58531;59.050;17.416;2022-08-01T09:46:15;100546.25;;;26.08;35.25
12666;BME280;58531;59.050;17.416;2022-08-01T09:48:55;100544.19;;;26.59;34.50
12666;BME280;58531;59.050;17.416;2022-08-01T09:51:33;100543.28;;;26.71;33.74
12666;BME280;58531;59.050;17.416;2022-08-01T09:54:01;100539.34;;;26.15;34.88
12666;BME280;58531;59.050;17.416;2022-08-01T09:56:37;100532.06;;;26.32;34.89
12666;BME280;58531;59.050;17.416;2022-08-01T09:59:05;100533.44;;;25.96;33.92
12666;BME280;58531;59.050;17.416;2022-08-01T10:01:43;100536.50;;;25.85;34.93
12666;BME280;58531;59.050;17.416;2022-08-01T10:04:12;100540.69;;;25.86;36.84
12666;BME280;58531;59.050;17.416;2022-08-01T10:06:40;100536.22;;;25.68;35.55
12666;BME280;58531;59.050;17.416;2022-08-01T10:09:09;100540.16;;;25.24;39.18
12666;BME280;58531;59.050;17.416;2022-08-01T10:11:40;100537.31;;;25.37;36.94
12666;BME280;58531;59.050;17.416;2022-08-01T10:14:08;100541.19;;;24.93;37.52
12666;BME280;58531;59.050;17.416;2022-08-01T10:16:35;100536.91;;;25.05;36.83
12666;BME280;58531;59.050;17.416;2022-08-01T10:19:05;100537.91;;;25.43;36.55
12666;BME280;58531;59.050;17.416;2022-08-01T10:21:33;100537.03;;;25.48;36.32
12666;BME280;58531;59.050;17.416;2022-08-01T10:24:01;100535.25;;;25.58;34.59
12666;BME280;58531;59.050;17.416;2022-08-01T10:26:32;100540.31;;;25.19;34.22
12666;BME280;58531;59.050;17.416;2022-08-01T10:29:01;100535.16;;;25.35;33.63
12666;BME280;58531;59.050;17.416;2022-08-01T10:31:29;100530.31;;;25.56;33.59
12666;BME280;58531;59.050;17.416;2022-08-01T10:33:58;100535.06;;;25.56;34.00
12666;BME280;58531;59.050;17.416;2022-08-01T10:36:26;100530.06;;;25.39;33.20
12666;BME280;58531;59.050;17.416;2022-08-01T10:38:54;100534.28;;;25.48;34.34
12666;BME280;58531;59.050;17.416;2022-08-01T10:41:21;100533.75;;;24.94;34.44
12666;BME280;58531;59.050;17.416;2022-08-01T10:43:48;100537.13;;;25.35;35.90
12666;BME280;58531;59.050;17.416;2022-08-01T10:46:19;100535.88;;;25.79;37.76
12666;BME280;58531;59.050;17.416;2022-08-01T10:48:51;100531.97;;;25.95;35.26
12666;BME280;58531;59.050;17.416;2022-08-01T10:51:20;100528.91;;;25.63;34.38
12666;BME280;58531;59.050;17.416;2022-08-01T10:53:49;100530.13;;;25.19;33.82
12666;BME280;58531;59.050;17.416;2022-08-01T10:56:16;100526.34;;;25.29;33.89
12666;BME280;58531;59.050;17.416;2022-08-01T10:58:44;100529.81;;;25.65;33.55
12666;BME280;58531;59.050;17.416;2022-08-01T11:01:17;100536.06;;;25.38;34.09
12666;BME280;58531;59.050;17.416;2022-08-01T11:03:57;100527.78;;;25.23;33.32
12666;BME280;58531;59.050;17.416;2022-08-01T11:06:32;100510.81;;;24.97;35.37
12666;BME280;58531;59.050;17.416;2022-08-01T11:09:03;100510.94;;;24.91;34.30
12666;BME280;58531;59.050;17.416;2022-08-01T11:11:31;100513.06;;;24.85;35.66
12666;BME280;58531;59.050;17.416;2022-08-01T11:14:02;100516.22;;;24.89;34.39
12666;BME280;58531;59.050;17.416;2022-08-01T11:16:33;100519.22;;;24.78;34.16
12666;BME280;58531;59.050;17.416;2022-08-01T11:19:02;100522.94;;;24.88;35.02
12666;BME280;58531;59.050;17.416;2022-08-01T11:21:57;100523.22;;;24.98;37.39
12666;BME280;58531;59.050;17.416;2022-08-01T11:24:54;100521.91;;;25.54;35.18
12666;BME280;58531;59.050;17.416;2022-08-01T11:27:25;100518.28;;;25.95;33.67
12666;BME280;58531;59.050;17.416;2022-08-01T11:30:21;100518.53;;;26.19;32.62
12666;BME280;58531;59.050;17.416;2022-08-01T11:32:49;100526.41;;;26.38;33.62
12666;BME280;58531;59.050;17.416;2022-08-01T11:35:17;100517.78;;;26.04;31.25
12666;BME280;58531;59.050;17.416;2022-08-01T11:37:46;100519.16;;;25.82;31.33
12666;BME280;58531;59.050;17.416;2022-08-01T11:40:17;100519.00;;;25.88;32.83
12666;BME280;58531;59.050;17.416;2022-08-01T11:42:43;100518.75;;;25.78;32.80
12666;BME280;58531;59.050;17.416;2022-08-01T11:45:10;100521.34;;;25.84;31.94
12666;BME280;58531;59.050;17.416;2022-08-01T11:47:43;100521.09;;;25.74;33.36
12666;BME280;58531;59.050;17.416;2022-08-01T11:50:33;100515.22;;;25.98;36.58
12666;BME280;58531;59.050;17.416;2022-08-01T11:53:01;100514.63;;;25.92;33.21
12666;BME280;58531;59.050;17.416;2022-08-01T11:55:28;100513.31;;;25.86;34.21
12666;BME280;58531;59.050;17.416;2022-08-01T11:57:59;100509.03;;;26.13;33.17
12666;BME280;58531;59.050;17.416;2022-08-01T12:00:27;100511.22;;;26.14;33.38
12666;BME280;58531;59.050;17.416;2022-08-01T12:02:58;100514.59;;;25.85;31.00
12666;BME280;58531;59.050;17.416;2022-08-01T12:05:26;100511.66;;;25.83;31.90
12666;BME280;58531;59.050;17.416;2022-08-01T12:07:54;100510.06;;;25.95;33.22
12666;BME280;58531;59.050;17.416;2022-08-01T12:10:23;100519.41;;;26.07;33.35
12666;BME280;58531;59.050;17.416;2022-08-01T12:12:52;100515.31;;;26.50;33.06
12666;BME280;58531;59.050;17.416;2022-08-01T12:15:19;100518.06;;;26.88;32.64
12666;BME280;58531;59.050;17.416;2022-08-01T12:17:48;100522.91;;;27.49;31.84
12666;BME280;58531;59.050;17.416;2022-08-01T12:20:19;100523.44;;;27.55;31.23
12666;BME280;58531;59.050;17.416;2022-08-01T12:22:47;100525.72;;;27.81;31.66
12666;BME280;58531;59.050;17.416;2022-08-01T12:25:18;100524.72;;;27.54;30.68
12666;BME280;58531;59.050;17.416;2022-08-01T12:27:46;100516.81;;;26.66;30.52
12666;BME280;58531;59.050;17.416;2022-08-01T12:30:14;100516.00;;;26.43;33.06
12666;BME280;58531;59.050;17.416;2022-08-01T12:32:42;100508.38;;;26.79;30.35
12666;BME280;58531;59.050;17.416;2022-08-01T12:35:11;100512.94;;;26.99;31.61
12666;BME280;58531;59.050;17.416;2022-08-01T12:37:40;100511.09;;;26.94;30.46
12666;BME280;58531;59.050;17.416;2022-08-01T12:40:10;100509.66;;;26.48;31.08
12666;BME280;58531;59.050;17.416;2022-08-01T12:42:38;100504.31;;;26.36;33.13
12666;BME280;58531;59.050;17.416;2022-08-01T12:45:07;100498.38;;;25.87;31.53
12666;BME280;58531;59.050;17.416;2022-08-01T12:47:37;100504.94;;;25.84;32.92